Blackburn, MO

9:54 AM CDT on March 27, 2017 (GMT -0500)
Hwy 20 and 127 South | | Change Station

Elev 830 ft 39.10 °N, 93.42 °W | Updated 6 seconds ago

Rain
Rain
48.0 °F
Feels Like 43 °F
N
10.5
Wind Variable Wind from NNE
Gusts 12.8 mph

Today
High -- | Low -- °F
--% Chance of Precip.
Yesterday
High -- | Low -- °F
Precip. -- in
Pressure 29.86 in
Visibility 2.5 miles
Clouds Overcast 200 ft
Windchill 43 °F
Dew Point 48 °F
Humidity 100%
Rainfall 0.22 in
Snow Depth Not available.
7:05 AM 7:33 PM
Waning Crescent, 0% visible
SPECI KSZL 271446Z 02008KT 2 1/2SM -RA BR OVC002 09/09 A2985 RMK AO2A SLP112 $
Pressure 29.86 in
Visibility 2.5 miles
Clouds Overcast 200 ft
Windchill 43 °F
Dew Point 48 °F
Humidity 100%
Rainfall 0.22 in
Snow Depth Not available.
7:05 AM 7:33 PM
Waning Crescent, 0% visible
SPECI KSZL 271446Z 02008KT 2 1/2SM -RA BR OVC002 09/09 A2985 RMK AO2A SLP112 $

Get Severe Weather Alerts

Thanks for signing up!

Be on the lookout for a verification email in your inbox.

You'll start receiving the daily forecast at 8 AM.

×

10-Day Weather Forecast

Almanac

Astronomy

Mar. 27, 2017 Rise Set
Actual Time
Civil Twilight
Nautical Twilight
Astronomical Twilight
Moon
Length of Visible Light
Length of Day
Tomorrow will be .
, % of the Moon is Illuminated

Today's Extremes

State Highs State Lows

Community

WunderPhotos

Upload Photos

1,962,540 photos uploaded!

WunderBlog® & News

Nearby

Air Quality

  Air Quality AQ Index Pollutant
Not available.

Snow Depth

Station Depth Elevation

Earthquake Activity

City Distance Mag. Time & Date
Minimum magnitude displayed is 2.5.

Earthquake Activity

City Distance Mag. Time & Date
Minimum magnitude displayed is 2.5.

Coastal Water Temperatures

Place Temperature

Stations

Nearby Weather Stations

Station Location Temp. Windchill Dew Point Humidity Wind Precip. Elev Updated Type
                   

Watches & Warnings

There are currently no watches in effect.